Time;durP1;ratioP1;P1;durP2;ratioP2;P2;SDS_P1;SDS_P2;PMS_P1;PMS_P2;Temp;Humidity;BMP_temperature;BMP_pressure;BME280_temperature;BME280_humidity;BME280_pressure;Samples;Min_cycle;Max_cycle;Signal;HPM_P1;HPM_P2
2023/07/24 00:01:03;;;;;;;19.00;7.18;;;;;;;24.47;100.00;98639.38;5039518;28;20435;-94
2023/07/24 00:03:30;;;;;;;17.13;6.95;;;;;;;24.43;100.00;98623.47;5039785;28;20495;-94
2023/07/24 00:05:58;;;;;;;18.08;7.60;;;;;;;24.44;100.00;98617.91;5039416;28;20076;-94
2023/07/24 00:08:24;;;;;;;20.98;7.50;;;;;;;24.43;100.00;98635.19;5039840;28;20390;-94
2023/07/24 00:10:50;;;;;;;14.93;6.88;;;;;;;24.43;100.00;98620.75;5039406;28;20041;-94
2023/07/24 00:13:16;;;;;;;18.33;6.93;;;;;;;24.39;100.00;98618.28;5039471;28;20044;-92
2023/07/24 00:15:42;;;;;;;16.73;7.45;;;;;;;24.51;100.00;98634.56;5039166;28;20065;-94
2023/07/24 00:18:07;;;;;;;17.33;6.90;;;;;;;24.55;100.00;98626.03;5039601;28;20127;-94
2023/07/24 00:20:35;;;;;;;19.88;7.78;;;;;;;24.66;100.00;98627.81;5039325;28;20041;-93
2023/07/24 00:23:01;;;;;;;19.40;7.03;;;;;;;24.63;100.00;98600.88;5057127;28;20032;-93
2023/07/24 00:25:27;;;;;;;18.02;8.60;;;;;;;24.73;99.84;98609.09;5039553;28;20499;-94
2023/07/24 00:27:53;;;;;;;18.17;7.40;;;;;;;24.87;99.19;98630.47;5036967;28;20551;-94
2023/07/24 00:30:19;;;;;;;18.13;8.30;;;;;;;24.72;98.70;98616.38;5018462;28;20069;-93
2023/07/24 00:32:46;;;;;;;18.70;8.52;;;;;;;24.61;99.76;98611.00;5031933;28;20068;-94
2023/07/24 00:35:12;;;;;;;20.17;8.50;;;;;;;24.63;99.02;98617.16;5039056;28;20043;-93
2023/07/24 00:37:39;;;;;;;19.10;8.23;;;;;;;24.61;99.47;98619.16;5038886;28;20136;-94
2023/07/24 00:40:06;;;;;;;17.45;8.52;;;;;;;24.52;100.00;98604.53;5037884;28;20061;-93
2023/07/24 00:42:32;;;;;;;16.48;8.30;;;;;;;24.42;100.00;98608.13;5038755;28;20045;-94
2023/07/24 00:44:58;;;;;;;17.50;8.27;;;;;;;24.36;100.00;98595.97;5039022;28;20041;-94
2023/07/24 00:47:26;;;;;;;19.85;7.60;;;;;;;24.05;100.00;98581.41;5038678;28;20040;-95
2023/07/24 00:49:53;;;;;;;18.27;7.93;;;;;;;24.16;100.00;98611.28;5038970;28;20136;-93
2023/07/24 00:52:18;;;;;;;20.33;8.88;;;;;;;24.13;100.00;98616.94;5038883;28;20494;-92
2023/07/24 00:54:47;;;;;;;17.73;8.23;;;;;;;24.15;100.00;98613.09;5032344;28;20136;-93
2023/07/24 00:57:13;;;;;;;22.40;8.07;;;;;;;24.05;100.00;98595.00;5023235;28;20037;-95
2023/07/24 00:59:39;;;;;;;22.48;8.05;;;;;;;24.07;100.00;98601.16;5033477;28;20044;-93
2023/07/24 01:02:05;;;;;;;21.98;8.10;;;;;;;24.04;100.00;98594.16;5038352;28;20045;-94
2023/07/24 01:04:31;;;;;;;20.30;7.78;;;;;;;24.02;100.00;98592.56;5038403;28;20052;-93
2023/07/24 01:06:58;;;;;;;20.10;8.20;;;;;;;24.03;100.00;98602.41;5038339;28;20119;-94
2023/07/24 01:09:23;;;;;;;18.27;8.27;;;;;;;24.04;100.00;98599.59;5038049;28;20545;-93
2023/07/24 01:11:56;;;;;;;19.45;7.65;;;;;;;24.07;100.00;98609.31;5037163;28;20068;-94
2023/07/24 01:14:26;;;;;;;21.10;8.40;;;;;;;24.09;100.00;98608.19;5038300;28;20052;-94
2023/07/24 01:16:55;;;;;;;19.20;8.00;;;;;;;23.94;100.00;98591.38;5038692;28;20041;-93
2023/07/24 01:19:29;;;;;;;;;;;;;;;23.98;100.00;98610.97;5039034;28;20494;-94
2023/07/24 01:22:07;;;;;;;23.23;8.40;;;;;;;23.90;100.00;98597.16;5038262;28;19924;-93
2023/07/24 01:24:43;;;;;;;18.90;7.93;;;;;;;23.78;100.00;98577.34;5038089;28;20049;-93
2023/07/24 01:27:10;;;;;;;21.00;7.97;;;;;;;23.92;100.00;98601.50;5038293;28;20040;-94
2023/07/24 01:29:36;;;;;;;20.60;8.15;;;;;;;23.92;100.00;98598.78;5037969;28;20049;-94
2023/07/24 01:32:03;;;;;;;14.98;7.45;;;;;;;23.83;100.00;98580.53;5037846;28;20041;-95
2023/07/24 01:34:28;;;;;;;17.30;8.13;;;;;;;23.84;100.00;98576.00;5038380;28;20087;-93
2023/07/24 01:36:54;;;;;;;16.75;8.45;;;;;;;23.74;100.00;98563.13;5038109;28;20041;-94
2023/07/24 01:39:21;;;;;;;21.73;9.40;;;;;;;23.86;100.00;98584.88;5038062;28;20053;-92
2023/07/24 01:41:47;;;;;;;18.63;8.00;;;;;;;23.86;100.00;98587.59;5038085;28;20452;-93
2023/07/24 01:44:14;;;;;;;21.80;8.18;;;;;;;23.86;100.00;98593.88;5038202;28;20077;-94
2023/07/24 01:46:40;;;;;;;19.98;8.63;;;;;;;23.76;100.00;98599.19;5037893;28;20107;-93
2023/07/24 01:49:06;;;;;;;22.50;9.05;;;;;;;23.53;100.00;98603.81;5038044;28;20490;-93
2023/07/24 01:51:32;;;;;;;19.92;8.55;;;;;;;23.44;100.00;98592.84;5030642;28;20042;-93
2023/07/24 01:53:58;;;;;;;25.30;9.10;;;;;;;23.58;100.00;98603.44;5024771;28;20038;-93
2023/07/24 01:56:24;;;;;;;17.15;8.30;;;;;;;23.55;100.00;98588.28;5044024;28;20047;-94
2023/07/24 01:58:49;;;;;;;22.35;7.80;;;;;;;23.49;100.00;98583.34;5038240;28;20048;-94
2023/07/24 02:01:17;;;;;;;24.10;8.90;;;;;;;23.55;100.00;98584.69;5034528;28;20523;-93
2023/07/24 02:03:43;;;;;;;22.65;8.70;;;;;;;23.51;100.00;98562.38;5041724;28;20045;-94
2023/07/24 02:06:09;;;;;;;23.83;8.55;;;;;;;23.52;100.00;98561.38;5044323;28;20043;-94
2023/07/24 02:08:34;;;;;;;22.75;8.48;;;;;;;23.55;100.00;98576.53;5044631;28;20045;-93
2023/07/24 02:11:00;;;;;;;21.45;8.73;;;;;;;23.54;100.00;98564.81;5045102;28;20052;-95
2023/07/24 02:13:26;;;;;;;19.08;9.07;;;;;;;23.53;100.00;98584.81;5026891;28;20132;-94
2023/07/24 02:15:53;;;;;;;24.80;10.00;;;;;;;23.54;100.00;98586.53;5044406;28;20436;-94
2023/07/24 02:18:20;;;;;;;20.35;9.32;;;;;;;23.53;100.00;98573.09;5044418;28;20041;-94
2023/07/24 02:20:50;;;;;;;21.15;9.23;;;;;;;23.71;100.00;98603.28;5043884;28;20470;-95
2023/07/24 02:23:16;;;;;;;22.50;9.35;;;;;;;23.61;100.00;98583.31;5044207;28;20052;-94
2023/07/24 02:25:42;;;;;;;26.80;10.93;;;;;;;23.69;100.00;98591.69;5044453;28;20112;-94
2023/07/24 02:28:09;;;;;;;21.73;8.38;;;;;;;23.71;100.00;98587.84;5062248;28;20367;-95
2023/07/24 02:30:38;;;;;;;26.23;8.70;;;;;;;23.72;100.00;98559.69;5044117;28;20076;-93
2023/07/24 02:33:04;;;;;;;17.85;8.52;;;;;;;23.95;100.00;98533.31;5044330;28;20055;-95
2023/07/24 02:35:31;;;;;;;19.42;9.00;;;;;;;23.77;100.00;98587.38;5031826;28;20045;-95
2023/07/24 02:37:57;;;;;;;30.52;10.38;;;;;;;23.87;100.00;98579.28;5024307;28;20045;-94
2023/07/24 02:40:23;;;;;;;24.30;9.07;;;;;;;23.99;100.00;98552.94;5030641;28;20040;-93
2023/07/24 02:42:48;;;;;;;22.90;9.43;;;;;;;23.92;100.00;98541.75;5043619;28;20394;-94
2023/07/24 02:45:14;;;;;;;19.92;9.60;;;;;;;23.95;100.00;98557.78;5042911;28;20524;-95
2023/07/24 02:47:42;;;;;;;21.20;9.43;;;;;;;23.93;100.00;98570.63;5044155;28;20548;-94
2023/07/24 02:50:08;;;;;;;17.42;8.50;;;;;;;23.83;100.00;98553.38;5043824;28;20033;-94
2023/07/24 02:52:36;;;;;;;24.08;10.02;;;;;;;23.87;100.00;98578.44;5044093;28;20048;-96
2023/07/24 02:55:01;;;;;;;19.98;8.82;;;;;;;23.73;100.00;98561.44;5043873;28;20045;-94
2023/07/24 02:57:27;;;;;;;17.92;8.40;;;;;;;23.64;100.00;98558.59;5044098;28;20048;-95
2023/07/24 02:59:53;;;;;;;19.95;8.98;;;;;;;23.75;100.00;98561.31;5036250;28;20136;-95
2023/07/24 03:02:19;;;;;;;19.95;9.23;;;;;;;23.74;100.00;98560.41;5038266;28;20136;-94
2023/07/24 03:04:45;;;;;;;19.40;8.68;;;;;;;23.70;100.00;98563.53;5031522;28;20111;-94
2023/07/24 03:07:11;;;;;;;18.08;8.52;;;;;;;23.61;100.00;98570.59;5040681;28;20079;-94
2023/07/24 03:09:38;;;;;;;25.98;9.48;;;;;;;23.48;100.00;98584.31;5041283;28;20102;-93
2023/07/24 03:12:04;;;;;;;23.85;9.80;;;;;;;23.53;100.00;98544.13;5036948;28;20061;-96
2023/07/24 03:14:30;;;;;;;19.52;8.95;;;;;;;23.67;100.00;98574.66;5040515;28;20135;-95
2023/07/24 03:16:56;;;;;;;22.48;9.02;;;;;;;23.59;100.00;98618.72;5040718;28;20080;-94
2023/07/24 03:19:22;;;;;;;29.83;11.73;;;;;;;23.64;100.00;98616.50;5040380;28;20045;-94
2023/07/24 03:21:47;;;;;;;27.02;11.25;;;;;;;23.83;100.00;98612.25;5040800;28;20394;-95
2023/07/24 03:24:13;;;;;;;22.08;8.93;;;;;;;23.97;100.00;98618.25;5039198;28;20178;-95
2023/07/24 03:26:40;;;;;;;19.90;8.75;;;;;;;23.95;100.00;98593.09;5035593;28;20046;-94
2023/07/24 03:29:06;;;;;;;23.88;9.88;;;;;;;24.03;100.00;98605.13;5022681;28;20075;-94
2023/07/24 03:31:32;;;;;;;22.13;9.63;;;;;;;23.86;100.00;98569.44;5040683;28;20448;-94
2023/07/24 03:33:58;;;;;;;23.48;9.20;;;;;;;23.96;100.00;98586.69;5040444;28;20045;-94
2023/07/24 03:36:24;;;;;;;21.02;9.13;;;;;;;23.63;100.00;98565.03;5039970;28;20171;-96
2023/07/24 03:38:50;;;;;;;19.92;9.75;;;;;;;23.61;100.00;98605.88;5039958;28;20375;-94
2023/07/24 03:41:15;;;;;;;19.63;9.23;;;;;;;23.55;100.00;98619.97;5040210;28;20075;-96
2023/07/24 03:43:43;;;;;;;21.42;9.15;;;;;;;23.42;100.00;98597.53;5040549;28;20072;-93
2023/07/24 03:46:09;;;;;;;20.77;9.05;;;;;;;23.51;100.00;98616.66;5040600;28;20136;-94
2023/07/24 03:48:36;;;;;;;21.05;9.40;;;;;;;23.48;100.00;98616.91;5040156;28;20482;-92
2023/07/24 03:51:02;;;;;;;21.58;9.10;;;;;;;23.48;100.00;98614.19;5040016;28;20041;-94
2023/07/24 03:53:28;;;;;;;21.05;9.70;;;;;;;23.42;100.00;98609.28;5021327;28;20049;-92
2023/07/24 03:55:54;;;;;;;19.92;9.82;;;;;;;23.46;100.00;98616.16;5031386;28;20384;-93
2023/07/24 03:58:20;;;;;;;24.55;10.07;;;;;;;23.32;100.00;98609.16;5040443;28;20035;-94
2023/07/24 04:00:48;;;;;;;19.33;9.38;;;;;;;23.32;100.00;98602.88;5039894;28;20406;-93
2023/07/24 04:03:14;;;;;;;20.55;9.27;;;;;;;23.27;100.00;98592.41;5039546;28;20045;-95
2023/07/24 04:05:40;;;;;;;20.23;10.18;;;;;;;23.41;100.00;98626.53;5038757;28;20099;-94
2023/07/24 04:08:05;;;;;;;22.48;10.07;;;;;;;23.42;100.00;98636.44;5039722;28;20536;-95
2023/07/24 04:10:31;;;;;;;24.67;9.85;;;;;;;23.24;100.00;98624.34;5040380;28;20045;-94
2023/07/24 04:12:57;;;;;;;23.50;10.20;;;;;;;23.36;100.00;98642.34;5039698;28;20045;-96
2023/07/24 04:15:23;;;;;;;20.13;9.38;;;;;;;23.49;100.00;98647.63;5038773;28;20041;-95
2023/07/24 04:17:50;;;;;;;22.20;9.40;;;;;;;23.35;100.00;98624.31;5035750;28;20043;-94
2023/07/24 04:20:16;;;;;;;22.30;9.88;;;;;;;23.35;100.00;98633.31;5040490;28;20056;-94
2023/07/24 04:22:42;;;;;;;21.80;10.20;;;;;;;23.46;100.00;98616.16;5041194;28;20045;-93
2023/07/24 04:25:08;;;;;;;21.33;9.93;;;;;;;23.56;100.00;98608.97;5041642;28;20071;-95
2023/07/24 04:27:34;;;;;;;19.63;9.35;;;;;;;23.63;100.00;98600.34;5040331;28;20037;-95
2023/07/24 04:30:00;;;;;;;19.17;9.75;;;;;;;23.60;100.00;98585.19;5039992;28;20391;-94
2023/07/24 04:32:27;;;;;;;23.60;9.38;;;;;;;23.44;100.00;98577.44;5039725;28;20502;-94
2023/07/24 04:34:54;;;;;;;22.77;10.35;;;;;;;23.12;100.00;98608.09;5039751;28;20506;-94
2023/07/24 04:37:20;;;;;;;27.23;9.40;;;;;;;23.16;100.00;98614.09;5039746;28;20558;-93
2023/07/24 04:39:46;;;;;;;25.63;10.27;;;;;;;23.27;100.00;98600.56;5040118;28;20143;-94
2023/07/24 04:42:12;;;;;;;20.27;9.30;;;;;;;23.62;100.00;98553.34;5042821;28;20067;-94
2023/07/24 04:44:38;;;;;;;17.23;9.73;;;;;;;23.57;100.00;98553.72;5037721;28;20037;-95
2023/07/24 04:47:04;;;;;;;26.27;9.43;;;;;;;23.51;100.00;98566.94;5040858;28;20041;-94
2023/07/24 04:49:30;;;;;;;21.48;9.30;;;;;;;23.49;100.00;98615.06;5039705;28;20069;-94
2023/07/24 04:51:58;;;;;;;21.50;9.32;;;;;;;23.52;100.00;98618.38;5040218;28;20052;-96
2023/07/24 04:54:24;;;;;;;22.23;9.60;;;;;;;23.52;100.00;98585.81;5041488;28;20049;-94
2023/07/24 04:56:49;;;;;;;26.30;10.93;;;;;;;23.67;100.00;98582.81;5041162;28;20048;-94
2023/07/24 04:59:15;;;;;;;26.88;10.20;;;;;;;23.70;100.00;98590.69;5041725;28;20075;-94
2023/07/24 05:01:44;;;;;;;;;;;;;;;23.79;100.00;98587.25;5040327;28;20049;-94
2023/07/24 05:04:09;;;;;;;22.08;10.15;;;;;;;23.76;100.00;98560.34;5041321;28;19927;-93
2023/07/24 05:06:37;;;;;;;27.55;10.15;;;;;;;23.74;100.00;98521.56;5026347;28;20045;-93
2023/07/24 05:09:04;;;;;;;22.83;10.55;;;;;;;23.99;100.00;98550.22;5019656;28;20041;-93
2023/07/24 05:11:30;;;;;;;21.13;10.00;;;;;;;23.75;100.00;98569.44;5019046;28;20075;-93
2023/07/24 05:13:56;;;;;;;25.13;9.80;;;;;;;23.57;100.00;98559.16;5018676;28;20049;-93
2023/07/24 05:16:22;;;;;;;22.40;10.15;;;;;;;23.74;100.00;98587.56;5019000;28;20052;-94
2023/07/24 05:18:47;;;;;;;24.25;10.13;;;;;;;23.93;100.00;98591.50;5018832;28;20072;-94
2023/07/24 05:21:13;;;;;;;24.63;10.60;;;;;;;23.78;100.00;98593.66;5028312;28;20041;-93
2023/07/24 05:23:39;;;;;;;27.63;11.75;;;;;;;23.31;100.00;98579.44;5033579;28;20040;-94
2023/07/24 05:26:06;;;;;;;26.17;10.40;;;;;;;23.26;100.00;98568.13;5017699;28;20042;-93
2023/07/24 05:28:33;;;;;;;24.90;10.05;;;;;;;23.52;100.00;98536.94;5018967;28;20041;-94
2023/07/24 05:31:01;;;;;;;24.02;10.85;;;;;;;23.81;100.00;98546.38;5019146;28;20464;-94
2023/07/24 05:33:27;;;;;;;19.75;9.13;;;;;;;24.13;100.00;98538.16;5018817;28;20529;-93
2023/07/24 05:35:58;;;;;;;26.38;10.32;;;;;;;24.25;100.00;98523.53;5021830;28;20036;-93
2023/07/24 05:38:23;;;;;;;25.13;9.00;;;;;;;24.29;100.00;98519.53;5038245;28;20087;-93
2023/07/24 05:40:54;;;;;;;22.27;9.57;;;;;;;24.37;100.00;98503.41;5038257;28;20069;-94
2023/07/24 05:43:21;;;;;;;21.42;9.70;;;;;;;24.13;100.00;98502.84;5038571;28;20045;-94
2023/07/24 05:45:47;;;;;;;21.38;10.38;;;;;;;23.74;100.00;98491.69;5037793;28;20064;-93
2023/07/24 05:48:13;;;;;;;19.67;9.02;;;;;;;24.03;100.00;98469.31;5037949;28;20079;-94
2023/07/24 05:50:40;;;;;;;22.67;10.10;;;;;;;24.54;100.00;98460.31;5037860;28;20045;-94
2023/07/24 05:53:06;;;;;;;23.90;9.88;;;;;;;25.11;100.00;98499.56;5038606;28;20049;-94
2023/07/24 05:55:32;;;;;;;21.88;9.27;;;;;;;24.91;100.00;98495.91;5038178;28;20041;-93
2023/07/24 05:57:58;;;;;;;20.63;9.75;;;;;;;25.21;100.00;98516.78;5040206;28;20041;-94
2023/07/24 06:00:25;;;;;;;20.85;9.32;;;;;;;25.22;100.00;98523.06;5037653;28;20072;-94
2023/07/24 06:02:52;;;;;;;21.98;9.02;;;;;;;25.82;100.00;98517.53;5038728;28;20051;-96
2023/07/24 06:05:19;;;;;;;23.27;10.27;;;;;;;25.18;100.00;98518.91;5039843;28;20045;-96
2023/07/24 06:07:45;;;;;;;20.58;9.55;;;;;;;25.44;100.00;98502.06;5037799;28;20072;-94
2023/07/24 06:10:11;;;;;;;21.85;8.75;;;;;;;26.01;100.00;98517.56;5036757;28;20072;-95
2023/07/24 06:12:37;;;;;;;24.77;9.18;;;;;;;26.55;100.00;98534.22;5039975;28;20088;-94
2023/07/24 06:15:04;;;;;;;25.80;9.82;;;;;;;26.69;100.00;98560.16;5026610;28;20499;-94
2023/07/24 06:17:31;;;;;;;21.73;9.73;;;;;;;26.70;100.00;98556.44;5018340;28;20037;-94
2023/07/24 06:19:57;;;;;;;23.10;9.77;;;;;;;26.54;100.00;98523.44;5018056;28;20372;-95
2023/07/24 06:22:23;;;;;;;22.48;8.88;;;;;;;26.65;100.00;98561.47;5018921;28;20152;-94
2023/07/24 06:24:49;;;;;;;24.42;9.25;;;;;;;26.49;100.00;98563.94;5018379;28;20136;-94
2023/07/24 06:27:15;;;;;;;25.02;9.77;;;;;;;26.23;100.00;98578.19;5034298;28;20375;-94
2023/07/24 06:29:41;;;;;;;19.65;9.35;;;;;;;26.18;100.00;98573.19;5035519;28;20099;-95
2023/07/24 06:32:07;;;;;;;20.52;9.02;;;;;;;26.30;100.00;98598.41;5018650;28;20141;-95
2023/07/24 06:34:34;;;;;;;22.55;9.02;;;;;;;26.31;100.00;98582.94;5032693;28;20041;-95
2023/07/24 06:37:00;;;;;;;18.65;8.80;;;;;;;26.33;100.00;98561.84;5037482;28;20387;-95
2023/07/24 06:39:28;;;;;;;26.80;10.18;;;;;;;26.09;100.00;98562.28;5025289;28;20045;-94
2023/07/24 06:41:54;;;;;;;21.00;9.63;;;;;;;26.40;100.00;98574.72;5021394;28;20037;-95
2023/07/24 06:44:20;;;;;;;22.80;9.15;;;;;;;26.41;100.00;98554.66;5022857;28;20041;-95
2023/07/24 06:46:46;;;;;;;19.40;9.65;;;;;;;26.63;100.00;98558.03;5023760;28;20409;-96
2023/07/24 06:49:12;;;;;;;23.55;9.27;;;;;;;27.14;100.00;98553.09;5022814;28;20046;-95
2023/07/24 06:51:39;;;;;;;18.60;8.05;;;;;;;27.58;100.00;98545.06;5021126;28;20113;-95
2023/07/24 06:54:05;;;;;;;24.88;9.85;;;;;;;27.81;100.00;98540.84;5021939;28;20410;-96
2023/07/24 06:56:31;;;;;;;26.25;8.98;;;;;;;28.18;100.00;98544.44;5002790;28;20543;-96
2023/07/24 06:58:57;;;;;;;22.20;8.98;;;;;;;28.61;97.96;98538.09;5022009;28;20047;-95
2023/07/24 07:01:23;;;;;;;22.88;9.55;;;;;;;28.59;97.71;98511.94;5021568;28;20041;-94
2023/07/24 07:03:49;;;;;;;23.08;8.85;;;;;;;28.32;98.28;98493.78;5021119;28;20107;-94
2023/07/24 07:06:15;;;;;;;25.58;10.90;;;;;;;28.20;97.45;98501.41;5021100;28;20053;-94
2023/07/24 07:08:43;;;;;;;21.15;9.43;;;;;;;27.82;100.00;98519.84;5021264;28;20041;-94
2023/07/24 07:11:09;;;;;;;23.27;9.52;;;;;;;28.11;100.00;98535.19;5020576;28;20038;-93
2023/07/24 07:13:34;;;;;;;23.05;9.70;;;;;;;27.79;100.00;98526.50;5020062;28;20065;-94
2023/07/24 07:16:00;;;;;;;20.30;8.98;;;;;;;28.29;100.00;98521.44;5020723;28;20033;-92
2023/07/24 07:18:26;;;;;;;18.92;8.82;;;;;;;28.66;96.83;98522.03;5007590;28;20116;-93
2023/07/24 07:20:54;;;;;;;19.25;9.32;;;;;;;28.83;94.90;98575.00;5015615;28;20076;-95
2023/07/24 07:23:20;;;;;;;22.25;9.40;;;;;;;29.10;93.02;98558.56;5021330;28;20069;-94
2023/07/24 07:25:49;;;;;;;22.38;8.90;;;;;;;28.97;90.69;98532.44;5020833;28;20563;-93
2023/07/24 07:28:16;;;;;;;20.90;8.25;;;;;;;29.13;91.66;98545.41;5022173;28;20073;-95
2023/07/24 07:30:42;;;;;;;22.67;8.82;;;;;;;29.51;89.87;98523.91;5019302;28;20467;-94
2023/07/24 07:33:08;;;;;;;17.08;8.65;;;;;;;29.55;88.07;98529.94;5021077;28;20069;-94
2023/07/24 07:35:35;;;;;;;25.67;9.30;;;;;;;29.58;89.00;98552.38;5020610;28;20503;-94
2023/07/24 07:38:03;;;;;;;21.65;8.65;;;;;;;29.74;85.67;98548.00;5023135;28;20073;-95
2023/07/24 07:40:29;;;;;;;20.88;9.20;;;;;;;28.90;88.19;98552.44;5039869;28;20041;-95
2023/07/24 07:42:57;;;;;;;25.67;9.25;;;;;;;29.03;86.04;98545.47;5040708;28;20119;-94
2023/07/24 07:45:24;;;;;;;16.75;7.72;;;;;;;29.20;86.00;98527.28;5040582;28;20044;-95
2023/07/24 07:47:50;;;;;;;18.85;7.25;;;;;;;29.33;84.93;98531.44;5032783;28;20041;-93
2023/07/24 07:50:16;;;;;;;21.00;8.18;;;;;;;29.06;86.09;98527.88;5021575;28;20050;-95
2023/07/24 07:52:41;;;;;;;18.33;7.95;;;;;;;29.07;84.92;98496.75;5021389;28;20052;-94
2023/07/24 07:55:08;;;;;;;21.40;8.48;;;;;;;28.90;89.86;98509.50;5020774;28;20477;-94
2023/07/24 07:57:35;;;;;;;20.80;8.20;;;;;;;28.96;89.92;98518.94;5019868;28;20033;-94
2023/07/24 08:00:02;;;;;;;21.38;8.82;;;;;;;28.69;94.05;98507.19;5038635;28;20045;-94
2023/07/24 08:02:28;;;;;;;24.83;8.60;;;;;;;28.77;91.13;98489.94;5024948;28;20049;-94
2023/07/24 08:04:54;;;;;;;22.20;8.90;;;;;;;29.14;91.45;98495.06;5042011;28;20288;-94
2023/07/24 08:07:20;;;;;;;21.58;8.02;;;;;;;29.60;85.97;98486.44;5040046;28;20036;-96
2023/07/24 08:09:46;;;;;;;19.50;7.85;;;;;;;29.85;85.97;98506.53;5039401;28;20101;-94
2023/07/24 08:12:12;;;;;;;14.15;7.53;;;;;;;29.93;84.90;98533.06;5038219;28;20461;-91
2023/07/24 08:14:38;;;;;;;17.70;7.60;;;;;;;30.10;81.71;98538.41;5037499;28;20045;-93
2023/07/24 08:17:05;;;;;;;20.98;7.85;;;;;;;30.11;83.88;98552.97;5038348;28;20041;-92
2023/07/24 08:19:31;;;;;;;16.73;7.70;;;;;;;29.57;81.50;98556.13;5037004;28;20048;-93
2023/07/24 08:21:57;;;;;;;20.90;7.00;;;;;;;29.70;79.65;98572.13;5035373;28;20132;-92
2023/07/24 08:24:23;;;;;;;23.20;7.05;;;;;;;30.15;79.39;98575.44;5038933;28;20037;-96
2023/07/24 08:26:49;;;;;;;19.63;7.60;;;;;;;30.54;79.61;98572.88;5038384;28;20104;-94
2023/07/24 08:29:15;;;;;;;21.80;7.50;;;;;;;30.61;75.67;98565.63;5039171;28;20076;-94
2023/07/24 08:31:41;;;;;;;23.05;7.30;;;;;;;31.06;74.49;98538.59;5040458;28;20052;-95
2023/07/24 08:34:08;;;;;;;19.73;7.18;;;;;;;30.87;72.22;98532.47;5041131;28;20048;-94
2023/07/24 08:36:34;;;;;;;22.20;6.97;;;;;;;31.31;72.36;98512.69;5030704;28;20042;-93
2023/07/24 08:39:00;;;;;;;22.30;6.72;;;;;;;31.72;70.34;98511.63;5008542;28;20080;-94
2023/07/24 08:41:25;;;;;;;19.75;6.68;;;;;;;31.17;68.91;98515.38;5015447;28;20049;-93
2023/07/24 08:43:53;;;;;;;21.15;6.28;;;;;;;31.30;71.13;98500.00;5019194;28;20046;-94
2023/07/24 08:46:20;;;;;;;21.98;7.32;;;;;;;31.84;67.82;98481.81;5019084;28;20065;-93
2023/07/24 08:48:46;;;;;;;22.88;6.45;;;;;;;32.15;64.44;98467.97;5019040;28;20052;-95
2023/07/24 08:51:16;;;;;;;21.17;7.35;;;;;;;32.41;53.40;98447.41;5001095;28;20053;-94
2023/07/24 08:53:43;;;;;;;21.08;6.70;;;;;;;32.77;50.58;98458.56;5008359;28;20048;-94
2023/07/24 08:56:10;;;;;;;20.57;6.33;;;;;;;32.89;48.47;98462.50;5006690;28;20109;-94
2023/07/24 08:58:36;;;;;;;23.42;7.18;;;;;;;32.84;47.86;98465.00;5013339;28;20042;-95
2023/07/24 09:01:04;;;;;;;24.00;8.07;;;;;;;31.51;49.17;98446.31;5018188;28;20038;-93
2023/07/24 09:03:31;;;;;;;21.70;7.30;;;;;;;31.57;50.75;98456.56;5013482;28;20072;-96
2023/07/24 09:05:57;;;;;;;21.67;7.30;;;;;;;31.65;50.29;98452.91;5015142;28;20046;-95
2023/07/24 09:08:31;;;;;;;22.23;7.20;;;;;;;31.96;49.97;98438.22;5024268;28;20046;-94
2023/07/24 09:10:57;;;;;;;21.13;7.00;;;;;;;32.46;49.48;98440.28;5023361;28;20056;-96
2023/07/24 09:13:23;;;;;;;21.92;7.47;;;;;;;32.86;49.38;98443.63;5023636;28;20053;-96
2023/07/24 09:15:49;;;;;;;21.13;7.55;;;;;;;32.86;49.23;98418.84;5021884;28;20498;-94
2023/07/24 09:18:16;;;;;;;20.52;7.15;;;;;;;33.02;48.46;98417.75;5020982;28;20045;-95
2023/07/24 09:20:43;;;;;;;22.08;6.75;;;;;;;33.19;48.89;98425.81;5019583;28;20077;-95
2023/07/24 09:23:10;;;;;;;18.15;7.07;;;;;;;33.25;47.88;98398.31;5020808;28;20045;-95
2023/07/24 09:25:39;;;;;;;15.60;6.20;;;;;;;33.17;48.37;98392.94;5022572;28;20050;-96
2023/07/24 09:28:12;;;;;;;19.40;7.22;;;;;;;33.13;47.37;98380.59;5021789;28;20045;-96
2023/07/24 09:30:38;;;;;;;20.52;7.32;;;;;;;33.21;48.00;98376.88;5021044;28;20399;-96
2023/07/24 09:33:05;;;;;;;18.27;6.60;;;;;;;33.55;47.22;98384.41;5022130;28;20029;-96
2023/07/24 09:35:31;;;;;;;21.60;7.88;;;;;;;33.79;47.41;98391.44;5024671;28;20049;-95
2023/07/24 09:38:06;;;;;;;19.55;7.40;;;;;;;33.55;46.63;98370.63;5025526;28;20038;-96
2023/07/24 09:40:41;;;;;;;19.88;7.43;;;;;;;33.30;47.84;98360.00;5042550;28;20041;-95
2023/07/24 09:43:17;;;;;;;19.27;7.65;;;;;;;33.54;47.53;98358.72;5030284;28;20060;-96
2023/07/24 09:45:44;;;;;;;23.20;7.38;;;;;;;33.77;46.51;98382.50;5023934;28;20071;-95
2023/07/24 09:48:14;;;;;;;19.60;7.33;;;;;;;33.57;46.69;98368.50;5023255;28;20045;-96
2023/07/24 09:50:41;;;;;;;18.73;7.68;;;;;;;33.47;47.72;98359.75;5022898;28;20042;-95
2023/07/24 09:53:13;;;;;;;15.55;7.55;;;;;;;33.50;48.01;98370.34;5024790;28;20050;-96
2023/07/24 09:55:47;;;;;;;24.13;7.97;;;;;;;33.63;47.90;98359.47;5023809;28;20049;-95
2023/07/24 09:58:14;;;;;;;21.10;7.22;;;;;;;33.86;46.54;98352.88;5022458;28;20403;-95
2023/07/24 10:00:40;;;;;;;24.77;7.90;;;;;;;34.22;48.14;98357.38;5021437;28;20056;-95
2023/07/24 10:03:06;;;;;;;22.08;6.88;;;;;;;34.22;45.94;98329.78;5023559;28;20561;-96
2023/07/24 10:05:32;;;;;;;18.33;6.75;;;;;;;34.38;45.93;98337.72;5023796;28;20151;-96
2023/07/24 10:07:59;;;;;;;20.27;7.47;;;;;;;34.10;45.89;98323.94;5023440;28;20041;-95
2023/07/24 10:10:27;;;;;;;20.27;6.80;;;;;;;34.14;46.51;98328.91;5024464;28;20041;-95
2023/07/24 10:12:54;;;;;;;17.40;7.82;;;;;;;34.23;46.78;98325.97;5026491;28;20053;-96
2023/07/24 10:15:20;;;;;;;;;;;;;;;34.35;45.80;98336.22;5029817;28;20152;-96
2023/07/24 10:17:46;;;;;;;18.50;7.35;;;;;;;34.07;46.32;98316.06;5030913;28;19921;-96
2023/07/24 10:20:17;;;;;;;22.65;7.93;;;;;;;33.91;46.63;98300.69;5029574;28;20441;-95
2023/07/24 10:22:43;;;;;;;19.20;7.28;;;;;;;34.35;45.95;98305.88;5030425;28;20052;-95
2023/07/24 10:25:09;;;;;;;19.75;7.13;;;;;;;34.28;45.44;98309.63;5029739;28;20048;-95
2023/07/24 10:27:39;;;;;;;20.67;7.53;;;;;;;34.74;42.90;98293.28;5029871;28;20029;-96
2023/07/24 10:30:08;;;;;;;22.88;7.95;;;;;;;34.82;43.49;98297.75;5028891;28;20050;-95
2023/07/24 10:32:44;;;;;;;19.67;7.15;;;;;;;34.47;43.62;98300.59;5029355;28;20048;-94
2023/07/24 10:35:11;;;;;;;19.77;7.30;;;;;;;34.07;45.56;98311.44;5029078;28;20403;-96
2023/07/24 10:37:38;;;;;;;18.20;7.13;;;;;;;34.27;44.45;98291.38;5028098;28;20045;-96
2023/07/24 10:40:05;;;;;;;22.73;7.88;;;;;;;34.84;43.96;98280.97;5031892;28;20056;-95
2023/07/24 10:42:33;;;;;;;22.92;7.53;;;;;;;34.65;42.69;98305.56;5050527;28;20044;-96
2023/07/24 10:45:08;;;;;;;18.40;7.32;;;;;;;34.01;43.35;98311.38;5049106;28;20113;-96
2023/07/24 10:47:34;;;;;;;22.95;6.72;;;;;;;34.08;40.73;98306.75;5045928;28;20057;-96
2023/07/24 10:50:02;;;;;;;19.63;6.90;;;;;;;34.23;40.49;98276.28;5050990;28;20044;-94
2023/07/24 10:52:28;;;;;;;17.33;6.32;;;;;;;34.49;42.51;98270.03;5050688;28;20464;-96
2023/07/24 10:54:56;;;;;;;16.95;6.10;;;;;;;34.69;37.86;98253.53;5052167;28;20049;-96
2023/07/24 10:57:26;;;;;;;24.63;6.90;;;;;;;34.32;38.61;98242.78;5050899;28;20041;-96
2023/07/24 10:59:52;;;;;;;15.68;6.20;;;;;;;34.37;39.09;98244.91;5050195;28;20139;-96
2023/07/24 11:02:20;;;;;;;20.10;7.07;;;;;;;34.59;38.08;98240.09;5049939;28;20069;-95
2023/07/24 11:04:46;;;;;;;;;;;;;;;34.74;37.42;98254.63;5051664;28;20140;-96
2023/07/24 11:07:13;;;;;;;23.38;6.90;;;;;;;34.87;37.64;98245.47;5054597;28;19920;-95
2023/07/24 11:09:40;;;;;;;23.35;6.38;;;;;;;35.09;36.79;98232.34;5051229;28;20053;-96
2023/07/24 11:12:17;;;;;;;18.37;5.80;;;;;;;35.26;34.00;98235.53;5048932;28;20454;-95
2023/07/24 11:14:50;;;;;;;20.38;6.68;;;;;;;35.11;33.18;98230.22;5050644;28;20041;-94
2023/07/24 11:17:16;;;;;;;22.33;6.40;;;;;;;35.09;33.77;98242.53;5045919;28;20045;-94